createdAt,value
2022-10-15T01:33:57.607Z,59.98
2022-10-15T01:36:41.154Z,60.10
2022-10-15T01:39:26.436Z,60.23
2022-10-15T01:42:05.507Z,60.18
2022-10-15T01:44:45.688Z,60.10
2022-10-15T01:47:50.077Z,60.30
2022-10-15T01:50:25.291Z,60.48
2022-10-15T01:52:59.585Z,60.06
2022-10-15T01:55:32.724Z,60.08
2022-10-15T01:58:06.774Z,60.23
2022-10-15T02:00:38.065Z,60.01
2022-10-15T02:03:08.678Z,59.88
2022-10-15T02:05:48.135Z,60.19
2022-10-15T02:09:05.795Z,59.99
2022-10-15T02:12:06.310Z,60.32
2022-10-15T02:14:58.724Z,60.34
2022-10-15T02:18:02.987Z,60.43
2022-10-15T02:21:13.586Z,59.83
2022-10-15T02:23:56.033Z,59.12
2022-10-15T02:26:30.772Z,59.27
2022-10-15T02:29:03.837Z,59.13
2022-10-15T02:31:37.139Z,59.20
2022-10-15T02:34:12.340Z,58.29
2022-10-15T02:36:45.248Z,58.22
2022-10-15T02:39:21.363Z,58.01
2022-10-15T02:41:53.319Z,56.98
2022-10-15T02:44:24.868Z,57.33
2022-10-15T02:46:55.848Z,57.68
2022-10-15T02:49:27.213Z,57.04
2022-10-15T02:51:58.583Z,57.15
2022-10-15T02:54:29.098Z,57.02
2022-10-15T02:57:00.086Z,57.34
2022-10-15T02:59:30.998Z,57.35
2022-10-15T03:02:02.889Z,56.93
2022-10-15T03:04:35.086Z,56.75
2022-10-15T03:07:06.266Z,56.88
2022-10-15T03:09:37.046Z,56.99
2022-10-15T03:12:09.490Z,57.16
2022-10-15T03:14:40.688Z,55.80
2022-10-15T03:17:11.504Z,55.94
2022-10-15T03:19:43.116Z,55.94
2022-10-15T03:22:14.042Z,56.02
2022-10-15T03:24:52.097Z,56.00
2022-10-15T03:27:28.055Z,56.13
2022-10-15T03:30:00.595Z,56.41
2022-10-15T03:32:36.252Z,56.66
2022-10-15T03:35:10.032Z,57.13
2022-10-15T03:37:40.848Z,57.29
2022-10-15T03:40:14.541Z,57.76
2022-10-15T03:42:47.473Z,57.75
2022-10-15T03:45:18.454Z,57.41
2022-10-15T03:47:53.609Z,56.18
2022-10-15T03:50:24.866Z,55.99
2022-10-15T03:52:56.127Z,55.63
2022-10-15T03:55:27.321Z,54.89
2022-10-15T03:57:58.219Z,55.13
2022-10-15T04:00:29.364Z,54.21
2022-10-15T04:03:03.597Z,53.99
2022-10-15T04:05:34.467Z,53.60
2022-10-15T04:08:09.802Z,53.42
2022-10-15T04:10:44.137Z,52.45
2022-10-15T04:13:14.965Z,52.80
2022-10-15T04:15:46.656Z,53.28
2022-10-15T04:18:18.297Z,53.11
2022-10-15T04:20:49.123Z,53.16
2022-10-15T04:23:26.519Z,52.95
2022-10-15T04:26:20.591Z,52.44
2022-10-15T04:28:52.151Z,52.74
2022-10-15T04:31:24.845Z,52.38
2022-10-15T04:33:56.893Z,51.84
2022-10-15T04:36:27.757Z,52.22
2022-10-15T04:39:08.667Z,52.24
2022-10-15T04:41:45.195Z,51.47
2022-10-15T04:44:24.516Z,51.08
2022-10-15T04:46:59.673Z,50.81
2022-10-15T04:49:47.051Z,50.81
2022-10-15T04:52:45.193Z,51.10
2022-10-15T04:55:17.053Z,51.87
2022-10-15T04:57:47.948Z,52.51
2022-10-15T05:00:23.861Z,53.00
2022-10-15T05:06:13.938Z,52.95
2022-10-15T05:08:46.095Z,52.24
2022-10-15T05:11:26.345Z,52.93
2022-10-15T05:14:00.335Z,51.92
2022-10-15T05:16:36.594Z,52.49
2022-10-15T05:19:11.917Z,51.63
2022-10-15T05:21:44.983Z,52.17
2022-10-15T05:24:25.825Z,51.57
2022-10-15T05:27:28.890Z,51.35
2022-10-15T05:29:59.895Z,51.04
2022-10-15T05:32:57.686Z,51.66
2022-10-15T05:35:29.060Z,51.44
2022-10-15T05:38:04.685Z,51.17
2022-10-15T05:40:35.466Z,50.91
2022-10-15T05:43:21.590Z,51.20
2022-10-15T05:45:56.402Z,51.78
2022-10-15T05:48:28.917Z,51.46
2022-10-15T05:51:11.849Z,51.37
2022-10-15T05:53:43.302Z,51.37
2022-10-15T05:56:15.109Z,51.67
2022-10-15T05:58:46.032Z,51.52
2022-10-15T06:01:17.522Z,50.88
2022-10-15T06:03:55.235Z,51.43
2022-10-15T06:06:30.084Z,51.59
2022-10-15T06:09:02.573Z,51.27
2022-10-15T06:11:33.889Z,51.47
2022-10-15T06:14:04.793Z,51.51
2022-10-15T06:16:36.090Z,51.18
2022-10-15T06:19:06.876Z,51.49
2022-10-15T06:21:37.676Z,51.77
2022-10-15T06:24:10.057Z,51.19
2022-10-15T06:26:41.387Z,51.76
2022-10-15T06:29:13.145Z,52.19
2022-10-15T06:31:43.857Z,52.21
2022-10-15T06:34:14.563Z,52.46
2022-10-15T06:36:45.492Z,53.27
2022-10-15T06:39:16.476Z,52.27
2022-10-15T06:41:48.201Z,53.22
2022-10-15T06:44:18.936Z,52.53
2022-10-15T06:46:49.631Z,52.58
2022-10-15T06:49:20.314Z,52.74
2022-10-15T06:51:51.004Z,52.85
2022-10-15T06:54:21.700Z,53.03
2022-10-15T06:56:52.252Z,53.02
2022-10-15T06:59:25.982Z,53.31
2022-10-15T07:01:57.939Z,53.54
2022-10-15T07:04:28.782Z,53.67
2022-10-15T07:06:59.968Z,53.65
2022-10-15T07:09:31.633Z,53.98
2022-10-15T07:12:02.360Z,54.19
2022-10-15T07:14:33.449Z,53.74
2022-10-15T07:17:05.108Z,54.14
2022-10-15T07:19:35.878Z,54.97
2022-10-15T07:22:06.744Z,54.96
2022-10-15T07:24:37.520Z,54.91
2022-10-15T07:27:18.681Z,55.07
2022-10-15T07:29:50.027Z,54.51
2022-10-15T07:32:21.131Z,54.97
2022-10-15T07:34:52.398Z,55.07
2022-10-15T07:37:23.171Z,55.45
2022-10-15T07:39:53.995Z,55.58
2022-10-15T07:42:24.715Z,55.62
2022-10-15T07:44:55.528Z,55.57
2022-10-15T07:47:26.574Z,56.25
2022-10-15T07:49:57.865Z,56.89
2022-10-15T07:52:28.492Z,57.04
2022-10-15T07:54:59.211Z,57.31
2022-10-15T07:57:30.058Z,57.68
2022-10-15T08:00:00.799Z,58.25
2022-10-15T08:02:31.617Z,58.21
2022-10-15T08:05:02.365Z,58.50
2022-10-15T08:07:33.315Z,58.45
2022-10-15T08:10:05.127Z,58.30
2022-10-15T08:12:35.948Z,58.51
2022-10-15T08:15:07.336Z,58.65
2022-10-15T08:17:38.221Z,58.46
2022-10-15T08:20:09.506Z,58.46
2022-10-15T08:22:40.174Z,58.40
2022-10-15T08:25:11.519Z,58.53
2022-10-15T08:27:41.824Z,59.04
2022-10-15T08:30:13.173Z,59.44
2022-10-15T08:32:43.574Z,59.53
2022-10-15T08:35:14.433Z,60.10
2022-10-15T08:37:45.091Z,60.61
2022-10-15T08:40:17.252Z,60.87
2022-10-15T08:42:49.522Z,60.84
2022-10-15T08:45:26.777Z,60.85
2022-10-15T08:48:07.620Z,61.09
2022-10-15T08:50:47.450Z,61.73
2022-10-15T08:53:23.429Z,61.10
2022-10-15T08:56:07.053Z,60.66
2022-10-15T09:01:58.475Z,60.05
2022-10-15T09:04:29.129Z,60.09
2022-10-15T09:07:18.221Z,59.79
2022-10-15T09:09:57.390Z,60.09
2022-10-15T09:12:49.141Z,59.74
2022-10-15T09:15:27.067Z,59.70
2022-10-15T09:17:58.911Z,59.69
2022-10-15T09:20:39.059Z,60.02
2022-10-15T09:23:18.461Z,60.09
2022-10-15T09:26:02.641Z,59.68
2022-10-15T09:28:50.004Z,60.03
2022-10-15T09:31:31.013Z,59.72
2022-10-15T09:34:14.821Z,59.15
2022-10-15T09:36:59.753Z,59.25
2022-10-15T09:39:57.482Z,59.33
2022-10-15T09:42:34.533Z,58.91
2022-10-15T09:45:13.229Z,58.83
2022-10-15T09:47:45.871Z,58.98
2022-10-15T09:53:07.951Z,59.84
2022-10-15T09:55:38.856Z,60.39
2022-10-15T09:58:21.513Z,60.95
2022-10-15T10:01:01.201Z,61.40
2022-10-15T10:03:39.834Z,62.36
2022-10-15T10:06:12.745Z,62.64
2022-10-15T10:09:02.084Z,63.54
2022-10-15T10:11:51.540Z,64.12
2022-10-15T10:14:46.043Z,63.69
2022-10-15T10:17:26.322Z,63.43
2022-10-15T10:20:23.220Z,63.23
2022-10-15T10:22:56.627Z,63.62
2022-10-15T10:25:31.330Z,63.75
2022-10-15T10:28:17.164Z,63.64
2022-10-15T10:31:06.455Z,63.96
2022-10-15T10:33:42.745Z,64.39
2022-10-15T10:36:33.409Z,63.81
2022-10-15T10:39:08.711Z,63.14
2022-10-15T10:41:54.495Z,63.18
2022-10-15T10:44:33.349Z,63.08
2022-10-15T10:47:22.926Z,63.28
2022-10-15T10:50:00.256Z,63.19
2022-10-15T10:52:34.253Z,63.83
2022-10-15T10:55:22.022Z,63.98
2022-10-15T10:57:57.131Z,64.09
2022-10-15T11:00:52.399Z,64.60
2022-10-15T11:03:40.568Z,64.60
2022-10-15T11:06:26.835Z,65.24
2022-10-15T11:09:26.989Z,65.73
2022-10-15T11:12:24.176Z,65.66
2022-10-15T11:15:27.003Z,65.25
2022-10-15T11:18:18.803Z,65.33
2022-10-15T11:21:08.218Z,65.50
2022-10-15T11:24:03.367Z,65.42
2022-10-15T11:27:11.273Z,65.21
2022-10-15T11:29:59.606Z,65.42
2022-10-15T11:33:13.349Z,65.36
2022-10-15T11:36:05.802Z,65.31
2022-10-15T11:38:59.962Z,64.85
2022-10-15T11:41:43.384Z,64.35
2022-10-15T11:44:47.578Z,64.54
2022-10-15T11:47:21.225Z,64.73
2022-10-15T11:49:51.878Z,64.41
2022-10-15T11:53:02.546Z,64.46
2022-10-15T11:55:53.384Z,64.43
2022-10-15T11:58:51.191Z,64.14
2022-10-15T12:02:01.397Z,63.76
2022-10-15T12:04:59.761Z,63.35
2022-10-15T12:07:41.743Z,63.55
2022-10-15T12:10:38.324Z,63.08
2022-10-15T12:13:13.859Z,63.00
2022-10-15T12:16:09.075Z,63.04
2022-10-15T12:19:00.837Z,63.09
2022-10-15T12:21:33.949Z,62.57
2022-10-15T12:24:06.211Z,62.04
2022-10-15T12:26:38.300Z,62.05
2022-10-15T12:29:24.140Z,61.83
2022-10-15T12:32:01.233Z,61.71
2022-10-15T12:34:42.606Z,61.68
2022-10-15T12:37:21.786Z,61.26
2022-10-15T12:40:00.146Z,61.30
2022-10-15T12:46:00.540Z,60.34
2022-10-15T12:48:37.209Z,60.86
2022-10-15T12:51:20.545Z,60.89
2022-10-15T12:53:52.843Z,61.01
2022-10-15T12:56:43.427Z,61.00
2022-10-15T12:59:34.562Z,61.83
2022-10-15T13:02:05.815Z,61.46
2022-10-15T13:04:42.218Z,60.98
2022-10-15T13:07:17.896Z,60.93
2022-10-15T13:09:48.983Z,61.13
2022-10-15T13:12:28.428Z,61.39
2022-10-15T13:15:06.997Z,61.42
2022-10-15T13:17:42.196Z,60.81
2022-10-15T13:20:46.536Z,61.00
2022-10-15T13:23:31.846Z,61.13
2022-10-15T13:26:16.908Z,60.79
2022-10-15T13:28:48.815Z,60.23
2022-10-15T13:31:34.458Z,59.62
2022-10-15T13:34:30.238Z,59.46
2022-10-15T13:37:03.756Z,59.40
2022-10-15T13:39:38.812Z,59.43
2022-10-15T13:42:19.457Z,59.20
2022-10-15T13:45:03.913Z,59.33
2022-10-15T13:47:37.116Z,59.19
2022-10-15T13:50:27.804Z,59.12
2022-10-15T13:53:24.709Z,58.94
2022-10-15T13:55:59.531Z,58.50
2022-10-15T13:58:32.072Z,58.36
2022-10-15T14:01:11.858Z,58.49
2022-10-15T14:03:58.961Z,58.76
2022-10-15T14:06:37.007Z,59.06
2022-10-15T14:09:31.720Z,59.30
2022-10-15T14:12:03.755Z,59.02
2022-10-15T14:14:49.411Z,58.80
2022-10-15T14:17:20.173Z,58.96
2022-10-15T14:20:25.679Z,59.48
2022-10-15T14:22:54.378Z,59.60
2022-10-15T14:25:29.241Z,59.95
2022-10-15T14:27:59.988Z,60.50
2022-10-15T14:30:35.646Z,60.82
2022-10-15T14:33:07.143Z,60.85
2022-10-15T14:35:39.883Z,61.13
2022-10-15T14:38:14.768Z,61.12
2022-10-15T14:41:06.475Z,60.88
2022-10-15T14:43:40.792Z,61.36
2022-10-15T14:49:00.798Z,61.57
2022-10-15T14:51:32.203Z,61.80
2022-10-15T14:54:03.567Z,61.97
2022-10-15T14:56:35.857Z,61.91
2022-10-15T14:59:07.134Z,62.19
2022-10-15T15:01:38.331Z,61.92
2022-10-15T15:04:09.181Z,62.04
2022-10-15T15:06:40.662Z,62.00
2022-10-15T15:09:11.819Z,61.73
2022-10-15T15:11:42.737Z,61.60
2022-10-15T15:14:29.836Z,61.69
2022-10-15T15:17:00.537Z,61.16
2022-10-15T15:19:31.152Z,61.28
2022-10-15T15:22:01.869Z,61.35
2022-10-15T15:24:32.439Z,61.08
2022-10-15T15:27:03.204Z,61.51
2022-10-15T15:29:34.128Z,61.13
2022-10-15T15:32:04.876Z,60.84
2022-10-15T15:34:35.985Z,60.97
2022-10-15T15:37:18.855Z,61.19
2022-10-15T15:39:49.774Z,61.24
2022-10-15T15:42:25.900Z,61.63
2022-10-15T15:44:57.123Z,61.70
2022-10-15T15:47:28.026Z,61.65
2022-10-15T15:49:58.859Z,61.72
2022-10-15T15:52:31.321Z,62.06
2022-10-15T15:55:04.970Z,61.46
2022-10-15T15:57:35.899Z,61.72
2022-10-15T16:00:11.847Z,61.40
2022-10-15T16:02:43.289Z,61.28
2022-10-15T16:05:17.199Z,60.80
2022-10-15T16:07:49.044Z,60.70
2022-10-15T16:10:20.486Z,60.83
2022-10-15T16:12:50.914Z,60.85
2022-10-15T16:15:21.412Z,60.25
2022-10-15T16:17:52.212Z,60.20
2022-10-15T16:20:23.107Z,60.07
2022-10-15T16:23:11.293Z,59.99
2022-10-15T16:25:41.716Z,60.05
2022-10-15T16:28:12.113Z,59.75
2022-10-15T16:30:42.425Z,59.84
2022-10-15T16:33:12.802Z,59.85
2022-10-15T16:35:43.460Z,59.74
2022-10-15T16:38:13.723Z,59.61
2022-10-15T16:40:44.006Z,59.90
2022-10-15T16:43:14.430Z,59.45
2022-10-15T16:45:44.832Z,59.72
2022-10-15T16:48:15.156Z,59.58
2022-10-15T16:50:45.598Z,59.60
2022-10-15T16:53:15.877Z,59.31
2022-10-15T16:55:46.202Z,59.68
2022-10-15T16:58:16.509Z,59.42
2022-10-15T17:00:46.779Z,59.30
2022-10-15T17:03:17.097Z,59.38
2022-10-15T17:05:47.437Z,59.38
2022-10-15T17:08:19.911Z,58.86
2022-10-15T17:10:51.905Z,59.29
2022-10-15T17:13:23.025Z,59.27
2022-10-15T17:15:59.139Z,59.29
2022-10-15T17:18:31.612Z,59.12
2022-10-15T17:21:01.823Z,59.05
2022-10-15T17:23:33.364Z,58.99
2022-10-15T17:26:07.857Z,59.11
2022-10-15T17:28:38.301Z,59.08
2022-10-15T17:31:10.074Z,58.89
2022-10-15T17:33:41.289Z,58.93
2022-10-15T17:36:15.953Z,58.81
2022-10-15T17:38:46.506Z,58.73
2022-10-15T17:41:18.614Z,58.68
2022-10-15T17:43:50.786Z,58.21
2022-10-15T17:46:22.272Z,58.34
2022-10-15T17:48:52.921Z,58.63
2022-10-15T17:51:26.322Z,58.34
2022-10-15T17:54:00.559Z,58.50
2022-10-15T17:56:32.601Z,58.57
2022-10-15T17:59:04.142Z,58.23
2022-10-15T18:04:26.990Z,58.05
2022-10-15T18:06:57.217Z,58.19
2022-10-15T18:09:28.579Z,58.04
2022-10-15T18:12:01.323Z,58.02
2022-10-15T18:14:34.321Z,57.77
2022-10-15T18:17:04.844Z,57.83
2022-10-15T18:19:35.387Z,57.84
2022-10-15T18:22:05.751Z,57.54
2022-10-15T18:24:36.012Z,57.81
2022-10-15T18:27:07.571Z,57.51
2022-10-15T18:29:38.863Z,57.54
2022-10-15T18:32:09.322Z,57.43
2022-10-15T18:34:39.553Z,57.49
2022-10-15T18:37:09.976Z,57.39
2022-10-15T18:39:40.196Z,57.45
2022-10-15T18:42:10.326Z,57.18
2022-10-15T18:44:40.407Z,57.14
2022-10-15T18:47:10.859Z,56.89
2022-10-15T18:49:46.044Z,56.88
2022-10-15T18:52:28.116Z,56.88
2022-10-15T18:55:06.691Z,56.98
2022-10-15T18:57:37.543Z,56.88
2022-10-15T19:00:08.212Z,56.70
2022-10-15T19:02:38.667Z,56.70
2022-10-15T19:05:08.934Z,56.66
2022-10-15T19:07:39.403Z,56.48
2022-10-15T19:10:09.765Z,56.65
2022-10-15T19:12:40.208Z,56.48
2022-10-15T19:15:10.868Z,56.36
2022-10-15T19:17:41.335Z,56.09
2022-10-15T19:20:11.956Z,56.29
2022-10-15T19:22:42.568Z,56.09
2022-10-15T19:25:12.838Z,56.33
2022-10-15T19:27:44.242Z,56.32
2022-10-15T19:30:14.865Z,56.33
2022-10-15T19:32:46.921Z,56.18
2022-10-15T19:35:17.259Z,56.36
2022-10-15T19:37:47.557Z,56.22
2022-10-15T19:40:17.907Z,56.13
2022-10-15T19:42:48.290Z,56.11
2022-10-15T19:45:18.706Z,55.88
2022-10-15T19:47:49.660Z,56.13
2022-10-15T19:50:20.056Z,56.05
2022-10-15T19:52:50.463Z,55.88
2022-10-15T19:55:24.252Z,56.08
2022-10-15T19:57:57.273Z,55.92
2022-10-15T20:00:27.928Z,56.01
2022-10-15T20:02:58.380Z,55.71
2022-10-15T20:05:28.707Z,56.02
2022-10-15T20:07:58.981Z,56.04
2022-10-15T20:10:29.203Z,55.78
2022-10-15T20:12:59.467Z,55.78
2022-10-15T20:15:29.822Z,56.02
2022-10-15T20:18:00.216Z,56.00
2022-10-15T20:20:30.583Z,55.95
2022-10-15T20:23:00.935Z,55.93
2022-10-15T20:25:31.232Z,56.03
2022-10-15T20:28:01.743Z,56.00
2022-10-15T20:30:32.008Z,55.84
2022-10-15T20:33:02.359Z,55.93
2022-10-15T20:35:35.038Z,56.04
2022-10-15T20:38:05.931Z,56.14
2022-10-15T20:40:37.502Z,56.04
2022-10-15T20:43:07.752Z,56.15
2022-10-15T20:45:43.700Z,56.16
2022-10-15T20:48:21.769Z,56.10
2022-10-15T20:50:52.564Z,56.13
2022-10-15T20:53:24.760Z,56.21
2022-10-15T20:55:55.301Z,56.20
2022-10-15T20:58:25.687Z,56.31
2022-10-15T21:00:56.023Z,56.10
2022-10-15T21:03:26.298Z,56.28
2022-10-15T21:05:56.807Z,56.02
2022-10-15T21:08:27.386Z,55.88
2022-10-15T21:11:03.952Z,55.97
2022-10-15T21:13:34.325Z,56.06
2022-10-15T21:16:05.729Z,56.33
2022-10-15T21:18:37.964Z,56.11
2022-10-15T21:21:26.650Z,56.16
2022-10-15T21:23:57.210Z,56.02
2022-10-15T21:26:27.978Z,56.07
2022-10-15T21:28:58.756Z,56.28
2022-10-15T21:31:29.961Z,56.16
2022-10-15T21:34:00.292Z,56.42
2022-10-15T21:36:31.396Z,56.07
2022-10-15T21:39:02.864Z,56.22
2022-10-15T21:41:34.512Z,56.13
2022-10-15T21:44:05.373Z,56.06
2022-10-15T21:46:36.152Z,56.23
2022-10-15T21:49:06.731Z,56.02
2022-10-15T21:51:37.806Z,56.10
2022-10-15T21:54:09.239Z,55.90
2022-10-15T21:56:39.914Z,56.21
2022-10-15T21:59:10.495Z,56.28
2022-10-15T22:01:41.148Z,56.15
2022-10-15T22:04:13.141Z,56.32
2022-10-15T22:06:43.591Z,56.35
2022-10-15T22:09:14.310Z,56.29
2022-10-15T22:11:44.997Z,56.50
2022-10-15T22:14:16.255Z,56.61
2022-10-15T22:16:46.581Z,56.43
2022-10-15T22:19:18.749Z,56.58
2022-10-15T22:21:49.058Z,56.70
2022-10-15T22:24:20.610Z,56.69
2022-10-15T22:26:52.255Z,56.44
2022-10-15T22:29:33.007Z,56.46
2022-10-15T22:32:05.717Z,56.19
2022-10-15T22:34:35.983Z,56.53
2022-10-15T22:37:06.402Z,56.56
2022-10-15T22:39:36.893Z,56.49
2022-10-15T22:42:08.555Z,56.25
2022-10-15T22:44:38.879Z,56.22
2022-10-15T22:47:09.338Z,56.19
2022-10-15T22:49:39.557Z,56.52
2022-10-15T22:52:09.947Z,56.26
2022-10-15T22:54:40.296Z,56.06
2022-10-15T22:57:10.645Z,56.13
2022-10-15T22:59:41.129Z,56.37
2022-10-15T23:02:11.573Z,56.30
2022-10-15T23:04:41.878Z,56.30
2022-10-15T23:07:12.271Z,56.13
2022-10-15T23:09:42.801Z,56.35
2022-10-15T23:12:13.617Z,56.16
2022-10-15T23:14:44.208Z,56.00
2022-10-15T23:17:14.525Z,56.05
2022-10-15T23:19:44.915Z,56.28
2022-10-15T23:22:15.289Z,56.32
2022-10-15T23:24:45.638Z,56.15
2022-10-15T23:27:15.967Z,56.17
2022-10-15T23:29:48.231Z,56.25
2022-10-15T23:32:23.801Z,56.40
2022-10-15T23:34:54.108Z,56.34
2022-10-15T23:37:24.753Z,56.38
2022-10-15T23:39:56.591Z,56.56
2022-10-15T23:42:27.057Z,56.19
2022-10-15T23:44:57.417Z,56.29
2022-10-15T23:47:28.147Z,56.40
2022-10-15T23:49:58.794Z,56.45
2022-10-15T23:52:29.508Z,56.44
2022-10-15T23:54:59.715Z,56.35
2022-10-15T23:57:29.934Z,56.59
